Dades meteomassalio
Diari Summary for Noviembre 13, 2017 Units:  Metric    English   Both
« Previous Day
Next Day »
Diari Semanal Mensual Anual Personalitzat
  Maxima: Minima: Mijana:
Temperatura: 13.9 °C 6.1 °C 10.2 °C
Rosada: 8.5 °C -4.7 °C 0.7 °C
Humitat: 70 % 30 % 53 %
Velocitat del vent: 88.8 km/h 18.5 km/h 45.4 km/h
Racha vent: 88.8 km/h - -
Vent:- - NW
Pressio: 1022.6 hPa 1014.8 hPa -
Pluja: 0.0 mm    
Historical Graphs
 
 
Tabular Data for Noviembre 13, 2017
Time Temperature Dew Point Pressure Wind Wind Speed Wind Gust Humidity Rainfall Rate (Hourly) solar Conditions
00:01 13.9 °C 8.3 °C 1016.8 hPa North 48.1 km/h 48.1 km/h 69 % 0.0 mm 0.0 W/m2 CLR
00:06 13.9 °C 8.3 °C 1016.8 hPa North 42.6 km/h 42.6 km/h 69 % 0.0 mm 0.0 W/m2 CLR
00:11 13.9 °C 8.3 °C 1016.8 hPa NNW 55.5 km/h 55.5 km/h 69 % 0.0 mm 0.0 W/m2 CLR
00:16 13.9 °C 8.3 °C 1016.8 hPa NNW 42.6 km/h 42.6 km/h 69 % 0.0 mm 0.0 W/m2 CLR
00:21 13.9 °C 8.3 °C 1016.8 hPa NW 57.4 km/h 57.4 km/h 69 % 0.0 mm 0.0 W/m2 CLR
00:26 13.9 °C 8.3 °C 1016.8 hPa NNW 55.5 km/h 55.5 km/h 69 % 0.0 mm 0.0 W/m2 CLR
00:31 13.9 °C 8.3 °C 1016.8 hPa NNW 46.3 km/h 46.3 km/h 69 % 0.0 mm 0.0 W/m2 CLR
00:36 13.9 °C 8.3 °C 1016.5 hPa NW 53.7 km/h 53.7 km/h 69 % 0.0 mm 0.0 W/m2 CLR
00:41 13.9 °C 8.3 °C 1016.5 hPa NW 42.6 km/h 42.6 km/h 69 % 0.0 mm 0.0 W/m2 CLR
00:46 13.9 °C 8.3 °C 1016.5 hPa NW 42.6 km/h 42.6 km/h 69 % 0.0 mm 0.0 W/m2 CLR
00:51 13.9 °C 8.5 °C 1016.1 hPa NW 46.3 km/h 46.3 km/h 70 % 0.0 mm 0.0 W/m2 CLR
00:56 13.9 °C 8.5 °C 1016.1 hPa NNW 44.4 km/h 44.4 km/h 70 % 0.0 mm 0.0 W/m2 CLR
01:01 13.9 °C 8.5 °C 1016.1 hPa NNW 51.5 km/h 51.5 km/h 70 % 0.0 mm 0.0 W/m2 CLR
01:06 13.3 °C 7.8 °C 1016.1 hPa NNW 55.5 km/h 55.5 km/h 69 % 0.0 mm 0.0 W/m2
01:11 13.9 °C 8.3 °C 1016.1 hPa NW 68.5 km/h 68.5 km/h 69 % 0.0 mm 0.0 W/m2
01:16 13.9 °C 8.3 °C 1016.1 hPa NNW 57.4 km/h 57.4 km/h 69 % 0.0 mm 0.0 W/m2 CLR
01:21 13.9 °C 8.5 °C 1016.5 hPa NNW 50.0 km/h 50.0 km/h 70 % 0.0 mm 0.0 W/m2
01:26 13.9 °C 8.5 °C 1016.1 hPa North 59.2 km/h 59.2 km/h 70 % 0.0 mm 0.0 W/m2
01:27 13.9 °C 8.5 °C 1016.5 hPa NNW 59.2 km/h 59.2 km/h 70 % 0.0 mm 0.0 W/m2
01:32 13.3 °C 8.0 °C 1016.5 hPa North 50.0 km/h 50.0 km/h 70 % 0.0 mm 0.0 W/m2 CLR
01:37 13.3 °C 8.0 °C 1016.5 hPa NNW 61.1 km/h 61.1 km/h 70 % 0.0 mm 0.0 W/m2
01:42 13.3 °C 8.0 °C 1016.5 hPa NNW 42.6 km/h 42.6 km/h 70 % 0.0 mm 0.0 W/m2 CLR
01:47 13.3 °C 8.0 °C 1016.5 hPa NNW 37.0 km/h 37.0 km/h 70 % 0.0 mm 0.0 W/m2 CLR
01:52 13.3 °C 8.0 °C 1016.5 hPa NNW 46.3 km/h 46.3 km/h 70 % 0.0 mm 0.0 W/m2 CLR
01:57 13.3 °C 8.0 °C 1016.5 hPa NNW 42.6 km/h 42.6 km/h 70 % 0.0 mm 0.0 W/m2 CLR
02:02 13.3 °C 8.0 °C 1016.5 hPa North 44.4 km/h 44.4 km/h 70 % 0.0 mm 0.0 W/m2 CLR
02:07 13.3 °C 7.8 °C 1016.5 hPa NNE 55.5 km/h 55.5 km/h 69 % 0.0 mm 0.0 W/m2 CLR
02:12 13.3 °C 7.8 °C 1016.5 hPa NNW 51.8 km/h 51.8 km/h 69 % 0.0 mm 0.0 W/m2 CLR
02:17 13.3 °C 7.8 °C 1016.5 hPa NNW 37.0 km/h 37.0 km/h 69 % 0.0 mm 0.0 W/m2 CLR
02:22 12.8 °C 7.0 °C 1016.5 hPa NNW 38.9 km/h 38.9 km/h 68 % 0.0 mm 0.0 W/m2 CLR
02:27 12.8 °C 6.8 °C 1016.5 hPa North 56.3 km/h 56.3 km/h 67 % 0.0 mm 0.0 W/m2 CLR
02:32 12.8 °C 6.6 °C 1016.5 hPa North 55.5 km/h 55.5 km/h 66 % 0.0 mm 0.0 W/m2 CLR
02:37 12.8 °C 6.3 °C 1016.8 hPa NNW 56.3 km/h 56.3 km/h 65 % 0.0 mm 0.0 W/m2 CLR
02:42 12.8 °C 6.6 °C 1016.5 hPa NNW 38.6 km/h 38.6 km/h 66 % 0.0 mm 0.0 W/m2 CLR
02:47 12.8 °C 6.6 °C 1016.1 hPa NNW 50.0 km/h 50.0 km/h 66 % 0.0 mm 0.0 W/m2 CLR
02:52 12.2 °C 5.8 °C 1016.1 hPa North 55.5 km/h 55.5 km/h 65 % 0.0 mm 0.0 W/m2 CLR
02:57 12.2 °C 5.6 °C 1015.8 hPa North 42.6 km/h 42.6 km/h 64 % 0.0 mm 0.0 W/m2 CLR
03:02 12.2 °C 5.4 °C 1015.8 hPa NNW 46.3 km/h 46.3 km/h 63 % 0.0 mm 0.0 W/m2
03:07 12.2 °C 4.9 °C 1015.8 hPa North 64.8 km/h 64.8 km/h 61 % 0.0 mm 0.0 W/m2 CLR
03:12 11.7 °C 4.2 °C 1015.5 hPa NNW 44.4 km/h 44.4 km/h 60 % 0.0 mm 0.0 W/m2 CLR
03:17 11.7 °C 3.9 °C 1015.1 hPa NW 61.1 km/h 61.1 km/h 59 % 0.0 mm 0.0 W/m2
03:22 11.7 °C 3.9 °C 1015.5 hPa North 79.6 km/h 79.6 km/h 59 % 0.0 mm 0.0 W/m2
03:27 11.7 °C 3.9 °C 1015.8 hPa North 68.5 km/h 68.5 km/h 59 % 0.0 mm 0.0 W/m2
03:32 11.7 °C 3.9 °C 1015.8 hPa North 57.4 km/h 57.4 km/h 59 % 0.0 mm 0.0 W/m2
03:37 11.7 °C 3.9 °C 1015.8 hPa NNW 66.6 km/h 66.6 km/h 59 % 0.0 mm 0.0 W/m2
03:42 11.7 °C 3.7 °C 1016.1 hPa NNE 79.6 km/h 79.6 km/h 58 % 0.0 mm 0.0 W/m2
03:47 11.1 °C 3.2 °C 1016.1 hPa North 55.5 km/h 55.5 km/h 58 % 0.0 mm 0.0 W/m2
03:52 11.1 °C 3.4 °C 1016.1 hPa North 57.4 km/h 57.4 km/h 59 % 0.0 mm 0.0 W/m2 CLR
03:57 11.7 °C 3.9 °C 1016.1 hPa North 64.8 km/h 64.8 km/h 59 % 0.0 mm 0.0 W/m2
04:02 11.1 °C 3.4 °C 1015.8 hPa NNE 75.9 km/h 75.9 km/h 59 % 0.0 mm 0.0 W/m2
04:07 11.1 °C 3.4 °C 1015.8 hPa NNW 81.4 km/h 81.4 km/h 59 % 0.0 mm 0.0 W/m2
04:12 11.1 °C 3.2 °C 1015.5 hPa NNW 68.5 km/h 68.5 km/h 58 % 0.0 mm 0.0 W/m2
04:17 11.1 °C 3.2 °C 1015.5 hPa NNW 74.0 km/h 74.0 km/h 58 % 0.0 mm 0.0 W/m2
04:20 11.1 °C 3.2 °C 1015.1 hPa NNW 77.7 km/h 77.7 km/h 58 % 0.0 mm 0.0 W/m2
04:22 11.7 °C 3.4 °C 1015.1 hPa NNW 79.6 km/h 79.6 km/h 57 % 0.0 mm 0.0 W/m2
04:24 11.7 °C 3.4 °C 1015.1 hPa NNW 79.6 km/h 79.6 km/h 57 % 0.0 mm 0.0 W/m2
04:34 11.1 °C 3.2 °C 1015.1 hPa NW 77.7 km/h 77.7 km/h 58 % 0.0 mm 0.0 W/m2
04:39 11.1 °C 3.4 °C 1015.1 hPa North 75.9 km/h 75.9 km/h 59 % 0.0 mm 0.0 W/m2
04:44 11.1 °C 3.6 °C 1015.5 hPa North 64.8 km/h 64.8 km/h 60 % 0.0 mm 0.0 W/m2
04:49 11.1 °C 3.6 °C 1015.5 hPa NNW 66.6 km/h 66.6 km/h 60 % 0.0 mm 0.0 W/m2
04:54 11.1 °C 3.6 °C 1015.5 hPa NNW 75.6 km/h 75.6 km/h 60 % 0.0 mm 0.0 W/m2
04:59 11.1 °C 3.6 °C 1015.1 hPa NNW 68.5 km/h 68.5 km/h 60 % 0.0 mm 0.0 W/m2
05:04 11.1 °C 3.4 °C 1015.1 hPa NNW 70.3 km/h 70.3 km/h 59 % 0.0 mm 0.0 W/m2
05:09 11.1 °C 3.4 °C 1014.8 hPa NNW 75.9 km/h 75.9 km/h 59 % 0.0 mm 0.0 W/m2
05:14 11.1 °C 3.4 °C 1014.8 hPa NNW 78.8 km/h 78.8 km/h 59 % 0.0 mm 0.0 W/m2
05:19 11.1 °C 3.4 °C 1014.8 hPa NNW 66.6 km/h 66.6 km/h 59 % 0.0 mm 0.0 W/m2
05:25 11.1 °C 3.4 °C 1014.8 hPa NNW 88.8 km/h 88.8 km/h 59 % 0.0 mm 0.0 W/m2
05:30 10.6 °C 2.9 °C 1014.8 hPa NNW 72.2 km/h 72.2 km/h 59 % 0.0 mm 0.0 W/m2
05:35 10.6 °C 3.1 °C 1015.1 hPa NW 57.4 km/h 57.4 km/h 60 % 0.0 mm 0.0 W/m2
05:40 10.6 °C 3.3 °C 1015.1 hPa North 62.9 km/h 62.9 km/h 61 % 0.0 mm 0.0 W/m2
05:45 10.6 °C 3.3 °C 1015.1 hPa NW 48.3 km/h 48.3 km/h 61 % 0.0 mm 0.0 W/m2
05:50 10.6 °C 3.6 °C 1015.5 hPa NNW 48.1 km/h 48.1 km/h 62 % 0.0 mm 0.0 W/m2 CLR
05:55 10.6 °C 3.6 °C 1015.8 hPa NNW 53.7 km/h 53.7 km/h 62 % 0.0 mm 0.0 W/m2
06:00 10.6 °C 3.3 °C 1015.8 hPa NNW 66.6 km/h 66.6 km/h 61 % 0.0 mm 0.0 W/m2
06:05 10.6 °C 3.6 °C 1015.8 hPa NW 53.7 km/h 53.7 km/h 62 % 0.0 mm 0.0 W/m2 CLR
06:10 10.6 °C 3.6 °C 1015.8 hPa NNW 64.4 km/h 64.4 km/h 62 % 0.0 mm 0.0 W/m2 CLR
06:15 10.6 °C 3.6 °C 1015.8 hPa NNW 38.9 km/h 38.9 km/h 62 % 0.0 mm 0.0 W/m2 CLR
06:20 10.0 °C 3.1 °C 1015.8 hPa NNW 59.2 km/h 59.2 km/h 62 % 0.0 mm 0.0 W/m2 CLR
06:25 10.0 °C 3.3 °C 1016.1 hPa North 51.8 km/h 51.8 km/h 63 % 0.0 mm 0.0 W/m2 CLR
06:30 10.0 °C 3.3 °C 1016.1 hPa NW 42.6 km/h 42.6 km/h 63 % 0.0 mm 0.0 W/m2 CLR
06:35 10.0 °C 3.3 °C 1016.5 hPa NNW 62.9 km/h 62.9 km/h 63 % 0.0 mm 0.0 W/m2
06:40 10.0 °C 3.3 °C 1016.5 hPa NNW 51.8 km/h 51.8 km/h 63 % 0.0 mm 0.0 W/m2 CLR
06:45 10.0 °C 3.3 °C 1016.5 hPa NNW 40.7 km/h 40.7 km/h 63 % 0.0 mm 0.0 W/m2 CLR
06:50 9.4 °C 2.9 °C 1016.5 hPa NNW 50.0 km/h 50.0 km/h 64 % 0.0 mm 0.0 W/m2 CLR
06:55 9.4 °C 2.9 °C 1016.5 hPa NNW 48.3 km/h 48.3 km/h 64 % 0.0 mm 0.0 W/m2 CLR
07:00 10.0 °C 3.5 °C 1016.8 hPa NNW 40.2 km/h 40.2 km/h 64 % 0.0 mm 0.0 W/m2 CLR
07:05 9.4 °C 2.9 °C 1016.8 hPa North 48.1 km/h 48.1 km/h 64 % 0.0 mm 0.0 W/m2 CLR
07:10 9.4 °C 2.9 °C 1016.8 hPa NNW 57.4 km/h 57.4 km/h 64 % 0.0 mm 0.0 W/m2 CLR
07:15 9.4 °C 2.9 °C 1016.8 hPa North 40.7 km/h 40.7 km/h 64 % 0.0 mm 0.0 W/m2 CLR
07:20 9.4 °C 2.9 °C 1016.8 hPa NNW 46.3 km/h 46.3 km/h 64 % 0.0 mm 0.0 W/m2 CLR
07:25 9.4 °C 2.9 °C 1016.8 hPa NNW 54.7 km/h 54.7 km/h 64 % 0.0 mm 0.0 W/m2 CLR
07:30 9.4 °C 2.9 °C 1016.8 hPa NNW 55.5 km/h 55.5 km/h 64 % 0.0 mm 0.0 W/m2 CLR
07:35 9.4 °C 2.9 °C 1016.8 hPa NNW 55.5 km/h 55.5 km/h 64 % 0.0 mm 0.0 W/m2 OVC
07:40 8.9 °C 2.4 °C 1016.8 hPa North 48.1 km/h 48.1 km/h 64 % 0.0 mm 0.0 W/m2 OVC
07:45 8.9 °C 2.7 °C 1016.8 hPa North 48.3 km/h 48.3 km/h 65 % 0.0 mm 5.0 W/m2 OVC
07:50 8.9 °C 2.9 °C 1017.2 hPa North 50.0 km/h 50.0 km/h 66 % 0.0 mm 7.0 W/m2 OVC
07:55 8.9 °C 2.7 °C 1017.2 hPa North 44.4 km/h 44.4 km/h 65 % 0.0 mm 9.0 W/m2 OVC
08:00 8.9 °C 2.7 °C 1017.5 hPa NNW 46.3 km/h 46.3 km/h 65 % 0.0 mm 11.0 W/m2 OVC
08:05 8.9 °C 2.4 °C 1017.5 hPa NNW 46.3 km/h 46.3 km/h 64 % 0.0 mm 14.0 W/m2 OVC
08:10 8.9 °C 2.4 °C 1017.5 hPa NNW 59.2 km/h 59.2 km/h 64 % 0.0 mm 16.0 W/m2 OVC
08:15 8.9 °C 2.2 °C 1017.5 hPa North 61.1 km/h 61.1 km/h 63 % 0.0 mm 21.0 W/m2 OVC
08:20 8.9 °C 2.2 °C 1017.8 hPa North 46.3 km/h 46.3 km/h 63 % 0.0 mm 28.0 W/m2 OVC
08:25 8.9 °C 2.2 °C 1017.8 hPa North 46.3 km/h 46.3 km/h 63 % 0.0 mm 42.0 W/m2 OVC
08:30 8.9 °C 2.2 °C 1017.8 hPa North 57.4 km/h 57.4 km/h 63 % 0.0 mm 54.0 W/m2
08:35 8.9 °C 2.2 °C 1017.8 hPa NNW 51.8 km/h 51.8 km/h 63 % 0.0 mm 65.0 W/m2 OVC
08:40 8.9 °C 2.2 °C 1017.8 hPa NNW 51.8 km/h 51.8 km/h 63 % 0.0 mm 77.0 W/m2 OVC
08:45 8.9 °C 2.2 °C 1018.2 hPa NNW 44.4 km/h 44.4 km/h 63 % 0.0 mm 86.0 W/m2 OVC
08:50 8.9 °C 2.0 °C 1018.5 hPa North 38.9 km/h 38.9 km/h 62 % 0.0 mm 105.0 W/m2 BKN
08:55 8.9 °C 2.0 °C 1018.2 hPa NW 46.3 km/h 46.3 km/h 62 % 0.0 mm 121.0 W/m2 FEW
09:00 8.9 °C 1.8 °C 1018.5 hPa NNW 42.6 km/h 42.6 km/h 61 % 0.0 mm 116.0 W/m2 CLR
09:05 8.9 °C 1.8 °C 1018.5 hPa North 50.0 km/h 50.0 km/h 61 % 0.0 mm 151.0 W/m2 CLR
09:10 8.9 °C 1.6 °C 1018.5 hPa North 57.9 km/h 57.9 km/h 60 % 0.0 mm 169.0 W/m2 CLR
09:15 9.4 °C 1.8 °C 1018.5 hPa North 53.7 km/h 53.7 km/h 59 % 0.0 mm 160.0 W/m2 CLR
09:20 9.4 °C 1.8 °C 1018.8 hPa NNW 46.7 km/h 46.7 km/h 59 % 0.0 mm 127.0 W/m2 CLR
09:25 9.4 °C 1.6 °C 1018.8 hPa NW 42.6 km/h 42.6 km/h 58 % 0.0 mm 199.0 W/m2 CLR
09:30 9.4 °C 1.6 °C 1018.8 hPa North 55.5 km/h 55.5 km/h 58 % 0.0 mm 232.0 W/m2 CLR
09:35 9.4 °C 1.6 °C 1018.8 hPa NNW 50.0 km/h 50.0 km/h 58 % 0.0 mm 246.0 W/m2 CLR
09:40 9.4 °C 1.3 °C 1018.8 hPa North 50.0 km/h 50.0 km/h 57 % 0.0 mm 258.0 W/m2 CLR
09:45 9.4 °C 1.3 °C 1019.2 hPa NNW 51.8 km/h 51.8 km/h 57 % 0.0 mm 271.0 W/m2 CLR
09:50 9.4 °C 1.3 °C 1019.2 hPa North 46.3 km/h 46.3 km/h 57 % 0.0 mm 281.0 W/m2 CLR
09:55 9.4 °C 1.1 °C 1019.5 hPa North 35.2 km/h 36.2 km/h 56 % 0.0 mm 297.0 W/m2 CLR
10:00 9.4 °C 0.8 °C 1019.5 hPa North 51.8 km/h 51.8 km/h 55 % 0.0 mm 308.0 W/m2 CLR
10:05 10.0 °C 1.1 °C 1019.5 hPa NNW 53.7 km/h 53.7 km/h 54 % 0.0 mm 318.0 W/m2 CLR
10:10 10.0 °C 0.8 °C 1019.5 hPa NNW 51.8 km/h 51.8 km/h 53 % 0.0 mm 329.0 W/m2 CLR
10:15 10.0 °C 0.8 °C 1019.5 hPa NNW 42.6 km/h 42.6 km/h 53 % 0.0 mm 341.0 W/m2 CLR
10:20 10.0 °C 0.6 °C 1019.2 hPa North 44.4 km/h 44.4 km/h 52 % 0.0 mm 352.0 W/m2 CLR
10:25 10.0 °C 0.6 °C 1019.2 hPa NNW 38.6 km/h 38.6 km/h 52 % 0.0 mm 360.0 W/m2 CLR
10:30 10.6 °C 0.8 °C 1019.5 hPa North 55.5 km/h 55.5 km/h 51 % 0.0 mm 373.0 W/m2 CLR
10:35 10.6 °C 0.6 °C 1019.5 hPa North 53.7 km/h 53.7 km/h 50 % 0.0 mm 383.0 W/m2 CLR
10:40 10.6 °C 0.6 °C 1019.5 hPa North 55.5 km/h 55.5 km/h 50 % 0.0 mm 390.0 W/m2 CLR
10:45 10.6 °C 0.3 °C 1019.5 hPa North 50.0 km/h 50.0 km/h 49 % 0.0 mm 399.0 W/m2 CLR
10:50 10.6 °C 0.0 °C 1019.5 hPa NNW 51.8 km/h 51.8 km/h 48 % 0.0 mm 411.0 W/m2 CLR
10:55 10.6 °C 0.0 °C 1019.5 hPa North 44.4 km/h 44.4 km/h 48 % 0.0 mm 420.0 W/m2 CLR
11:00 11.1 °C 0.2 °C 1019.5 hPa NNW 35.2 km/h 35.2 km/h 47 % 0.0 mm 425.0 W/m2 CLR
11:05 11.1 °C 0.2 °C 1019.9 hPa NNE 42.6 km/h 42.6 km/h 47 % 0.0 mm 434.0 W/m2 CLR
11:10 11.1 °C -0.1 °C 1019.9 hPa NNE 55.5 km/h 55.5 km/h 46 % 0.0 mm 438.0 W/m2 CLR
11:15 11.1 °C -0.1 °C 1019.9 hPa North 55.5 km/h 55.5 km/h 46 % 0.0 mm 448.0 W/m2 CLR
11:20 11.1 °C 0.2 °C 1019.9 hPa ESE 48.1 km/h 48.1 km/h 47 % 0.0 mm 457.0 W/m2 CLR
11:25 11.7 °C 0.4 °C 1019.9 hPa NNW 59.5 km/h 59.5 km/h 46 % 0.0 mm 462.0 W/m2 CLR
11:30 11.7 °C 0.4 °C 1020.2 hPa North 55.5 km/h 55.5 km/h 46 % 0.0 mm 464.0 W/m2 CLR
11:35 11.7 °C 0.1 °C 1020.2 hPa North 46.3 km/h 46.3 km/h 45 % 0.0 mm 471.0 W/m2 CLR
11:40 11.7 °C 0.4 °C 1020.2 hPa North 57.9 km/h 57.9 km/h 46 % 0.0 mm 482.0 W/m2 CLR
11:45 11.7 °C 0.4 °C 1020.2 hPa NNW 42.6 km/h 42.6 km/h 46 % 0.0 mm 480.0 W/m2 CLR
11:50 11.7 °C 0.4 °C 1019.9 hPa North 51.8 km/h 51.8 km/h 46 % 0.0 mm 489.0 W/m2 CLR
11:55 11.7 °C 0.1 °C 1020.2 hPa NW 44.4 km/h 44.4 km/h 45 % 0.0 mm 490.0 W/m2 CLR
12:00 11.7 °C -0.2 °C 1020.2 hPa North 54.7 km/h 54.7 km/h 44 % 0.0 mm 496.0 W/m2 CLR
12:05 11.7 °C -0.2 °C 1020.2 hPa NNW 37.0 km/h 37.0 km/h 44 % 0.0 mm 496.0 W/m2 CLR
12:15 11.7 °C -0.8 °C 1020.2 hPa North 42.6 km/h 42.6 km/h 42 % 0.0 mm 504.0 W/m2 CLR
12:21 11.7 °C -0.8 °C 1020.2 hPa NNW 50.0 km/h 50.0 km/h 42 % 0.0 mm 504.0 W/m2 CLR
12:26 12.2 °C -0.7 °C 1019.9 hPa NNW 44.4 km/h 44.4 km/h 41 % 0.0 mm 510.0 W/m2 CLR
12:31 12.2 °C -1.0 °C 1019.9 hPa NNW 46.3 km/h 46.3 km/h 40 % 0.0 mm 513.0 W/m2 CLR
12:36 12.2 °C -1.3 °C 1019.9 hPa NNW 44.4 km/h 44.4 km/h 39 % 0.0 mm 508.0 W/m2 CLR
12:41 12.2 °C -1.7 °C 1019.9 hPa NNW 33.3 km/h 33.3 km/h 38 % 0.0 mm 512.0 W/m2 CLR
12:46 12.2 °C -2.1 °C 1019.9 hPa North 35.4 km/h 35.4 km/h 37 % 0.0 mm 513.0 W/m2 CLR
12:51 12.8 °C -2.3 °C 1019.9 hPa NW 43.4 km/h 43.4 km/h 35 % 0.0 mm 512.0 W/m2 CLR
12:56 12.8 °C -2.3 °C 1020.2 hPa North 45.1 km/h 45.1 km/h 35 % 0.0 mm 510.0 W/m2 CLR
13:02 12.8 °C -2.3 °C 1019.9 hPa NNW 44.4 km/h 44.4 km/h 35 % 0.0 mm 510.0 W/m2 CLR
13:07 12.8 °C -2.3 °C 1019.5 hPa North 41.8 km/h 41.8 km/h 35 % 0.0 mm 510.0 W/m2 CLR
13:12 12.8 °C -2.3 °C 1019.5 hPa NW 37.0 km/h 37.0 km/h 35 % 0.0 mm 503.0 W/m2 CLR
13:17 12.8 °C -1.9 °C 1019.9 hPa NNW 42.6 km/h 42.6 km/h 36 % 0.0 mm 503.0 W/m2 CLR
13:22 12.8 °C -1.9 °C 1019.5 hPa North 33.8 km/h 33.8 km/h 36 % 0.0 mm 499.0 W/m2 CLR
13:27 12.8 °C -2.3 °C 1019.9 hPa North 43.4 km/h 43.4 km/h 35 % 0.0 mm 492.0 W/m2 CLR
13:32 12.2 °C -3.2 °C 1019.5 hPa North 40.7 km/h 40.7 km/h 34 % 0.0 mm 490.0 W/m2 CLR
13:37 12.8 °C -3.1 °C 1019.5 hPa NNW 40.7 km/h 40.7 km/h 33 % 0.0 mm 489.0 W/m2 CLR
13:42 12.8 °C -2.7 °C 1019.5 hPa North 46.3 km/h 46.3 km/h 34 % 0.0 mm 482.0 W/m2 CLR
13:47 12.8 °C -3.1 °C 1019.5 hPa North 48.1 km/h 48.1 km/h 33 % 0.0 mm 480.0 W/m2 CLR
13:52 12.8 °C -3.6 °C 1019.5 hPa NW 42.6 km/h 42.6 km/h 32 % 0.0 mm 475.0 W/m2 CLR
13:57 12.8 °C -3.6 °C 1019.5 hPa NNW 42.6 km/h 42.6 km/h 32 % 0.0 mm 469.0 W/m2 CLR
14:02 12.8 °C -3.1 °C 1019.5 hPa NNW 42.6 km/h 42.6 km/h 33 % 0.0 mm 466.0 W/m2 CLR
14:07 13.3 °C -2.2 °C 1019.2 hPa North 33.8 km/h 33.8 km/h 34 % 0.0 mm 461.0 W/m2 CLR
14:12 13.3 °C -3.1 °C 1019.2 hPa North 37.0 km/h 37.0 km/h 32 % 0.0 mm 454.0 W/m2 CLR
14:17 12.8 °C -2.7 °C 1019.2 hPa NW 42.6 km/h 42.6 km/h 34 % 0.0 mm 443.0 W/m2 CLR
14:22 12.8 °C -2.3 °C 1019.2 hPa NW 40.7 km/h 40.7 km/h 35 % 0.0 mm 439.0 W/m2 CLR
14:27 12.8 °C -3.6 °C 1019.2 hPa North 48.3 km/h 48.3 km/h 32 % 0.0 mm 432.0 W/m2 CLR
14:32 12.8 °C -3.9 °C 1019.2 hPa North 42.6 km/h 42.6 km/h 31 % 0.0 mm 422.0 W/m2 CLR
14:37 12.8 °C -3.6 °C 1019.2 hPa NNW 30.6 km/h 30.6 km/h 32 % 0.0 mm 415.0 W/m2 CLR
14:42 12.8 °C -3.9 °C 1019.2 hPa North 42.6 km/h 42.6 km/h 31 % 0.0 mm 406.0 W/m2 CLR
14:47 12.8 °C -4.4 °C 1019.2 hPa NNW 48.1 km/h 48.1 km/h 30 % 0.0 mm 396.0 W/m2 CLR
14:52 12.8 °C -4.4 °C 1019.2 hPa North 37.0 km/h 37.0 km/h 30 % 0.0 mm 388.0 W/m2 CLR
14:57 12.8 °C -4.4 °C 1019.2 hPa North 42.6 km/h 42.6 km/h 30 % 0.0 mm 381.0 W/m2 CLR
15:02 12.8 °C -3.9 °C 1019.2 hPa North 33.3 km/h 33.3 km/h 31 % 0.0 mm 369.0 W/m2 CLR
15:07 12.8 °C -3.9 °C 1019.5 hPa NW 46.3 km/h 46.3 km/h 31 % 0.0 mm 359.0 W/m2 CLR
15:12 12.8 °C -3.9 °C 1019.5 hPa North 38.9 km/h 38.9 km/h 31 % 0.0 mm 348.0 W/m2 CLR
15:17 12.8 °C -3.9 °C 1019.5 hPa North 38.9 km/h 38.9 km/h 31 % 0.0 mm 338.0 W/m2 CLR
15:22 12.8 °C -3.6 °C 1019.5 hPa NNW 44.4 km/h 44.4 km/h 32 % 0.0 mm 325.0 W/m2 CLR
15:27 12.8 °C -3.6 °C 1019.5 hPa NNW 43.4 km/h 43.4 km/h 32 % 0.0 mm 313.0 W/m2 CLR
15:32 12.2 °C -4.0 °C 1019.5 hPa NNW 31.5 km/h 31.5 km/h 32 % 0.0 mm 304.0 W/m2 CLR
15:37 12.2 °C -3.6 °C 1019.5 hPa NNW 35.2 km/h 35.2 km/h 33 % 0.0 mm 292.0 W/m2 CLR
15:42 12.2 °C -3.6 °C 1019.5 hPa NW 40.7 km/h 40.7 km/h 33 % 0.0 mm 279.0 W/m2 CLR
15:47 12.2 °C -3.6 °C 1019.5 hPa NNW 35.2 km/h 35.2 km/h 33 % 0.0 mm 265.0 W/m2 CLR
15:52 12.2 °C -3.6 °C 1019.9 hPa NNW 31.5 km/h 31.5 km/h 33 % 0.0 mm 251.0 W/m2 CLR
15:57 12.2 °C -3.6 °C 1019.9 hPa NNW 35.2 km/h 35.2 km/h 33 % 0.0 mm 236.0 W/m2 CLR
16:02 11.7 °C -3.7 °C 1019.9 hPa NW 46.3 km/h 46.3 km/h 34 % 0.0 mm 223.0 W/m2 CLR
16:07 11.7 °C -4.1 °C 1019.9 hPa NNW 42.6 km/h 42.6 km/h 33 % 0.0 mm 207.0 W/m2 CLR
16:13 11.7 °C -4.1 °C 1019.9 hPa North 37.0 km/h 37.0 km/h 33 % 0.0 mm 190.0 W/m2 CLR
16:18 11.7 °C -4.1 °C 1019.9 hPa North 29.6 km/h 29.6 km/h 33 % 0.0 mm 174.0 W/m2 CLR
16:23 11.1 °C -4.6 °C 1019.9 hPa NW 35.2 km/h 35.2 km/h 33 % 0.0 mm 158.0 W/m2 CLR
16:28 11.1 °C -4.6 °C 1019.9 hPa NNW 35.4 km/h 35.4 km/h 33 % 0.0 mm 144.0 W/m2 CLR
16:33 11.1 °C -4.6 °C 1019.9 hPa NW 38.9 km/h 38.9 km/h 33 % 0.0 mm 128.0 W/m2 CLR
16:38 11.1 °C -4.2 °C 1019.9 hPa NW 40.7 km/h 40.7 km/h 34 % 0.0 mm 113.0 W/m2 CLR
16:43 10.6 °C -4.7 °C 1019.9 hPa NNW 33.8 km/h 33.8 km/h 34 % 0.0 mm 98.0 W/m2 CLR
16:48 10.6 °C -4.7 °C 1020.2 hPa NNW 48.1 km/h 48.1 km/h 34 % 0.0 mm 84.0 W/m2 FEW
16:53 10.6 °C -4.7 °C 1020.2 hPa NNW 35.4 km/h 35.4 km/h 34 % 0.0 mm 72.0 W/m2 FEW
16:58 10.6 °C -4.3 °C 1020.2 hPa North 31.5 km/h 31.5 km/h 35 % 0.0 mm 58.0 W/m2 SCT
17:03 10.6 °C -4.3 °C 1020.2 hPa NW 38.9 km/h 38.9 km/h 35 % 0.0 mm 42.0 W/m2 SCT
17:08 10.0 °C -4.4 °C 1020.5 hPa NNW 50.0 km/h 50.0 km/h 36 % 0.0 mm 35.0 W/m2 BKN
17:13 10.0 °C -4.1 °C 1020.5 hPa NNW 42.6 km/h 42.6 km/h 37 % 0.0 mm 26.0 W/m2 BKN
17:18 10.0 °C -4.1 °C 1020.5 hPa NNW 31.5 km/h 31.5 km/h 37 % 0.0 mm 19.0 W/m2 BKN
17:23 9.4 °C -4.2 °C 1020.5 hPa North 42.6 km/h 42.6 km/h 38 % 0.0 mm 14.0 W/m2 BKN
17:28 9.4 °C -4.2 °C 1020.2 hPa NNW 35.4 km/h 35.4 km/h 38 % 0.0 mm 12.0 W/m2 BKN
17:33 9.4 °C -3.8 °C 1020.2 hPa NNW 38.9 km/h 38.9 km/h 39 % 0.0 mm 9.0 W/m2 BKN
17:38 9.4 °C -3.8 °C 1020.2 hPa NNW 40.7 km/h 40.7 km/h 39 % 0.0 mm 7.0 W/m2 BKN
17:43 9.4 °C -3.5 °C 1020.5 hPa NNW 43.4 km/h 43.4 km/h 40 % 0.0 mm 5.0 W/m2 OVC
17:48 9.4 °C -3.2 °C 1020.5 hPa NW 35.2 km/h 35.2 km/h 41 % 0.0 mm 0.0 W/m2 OVC
17:53 8.9 °C -3.7 °C 1020.9 hPa NW 29.6 km/h 29.6 km/h 41 % 0.0 mm 0.0 W/m2 OVC
17:58 8.9 °C -3.7 °C 1020.9 hPa NW 42.6 km/h 42.6 km/h 41 % 0.0 mm 0.0 W/m2 CLR
18:03 8.9 °C -3.3 °C 1020.9 hPa NNW 40.7 km/h 40.7 km/h 42 % 0.0 mm 0.0 W/m2 CLR
18:08 8.9 °C -3.3 °C 1020.9 hPa North 41.8 km/h 41.8 km/h 42 % 0.0 mm 0.0 W/m2 CLR
18:13 8.9 °C -3.3 °C 1021.2 hPa NW 33.3 km/h 33.3 km/h 42 % 0.0 mm 0.0 W/m2 CLR
18:18 8.9 °C -3.3 °C 1021.2 hPa NW 29.6 km/h 29.6 km/h 42 % 0.0 mm 0.0 W/m2 CLR
18:23 8.3 °C -3.6 °C 1021.2 hPa NW 40.7 km/h 40.7 km/h 43 % 0.0 mm 0.0 W/m2 CLR
18:28 8.3 °C -3.6 °C 1021.6 hPa NNW 40.7 km/h 40.7 km/h 43 % 0.0 mm 0.0 W/m2 CLR
18:33 8.3 °C -3.6 °C 1021.6 hPa NNW 31.5 km/h 31.5 km/h 43 % 0.0 mm 0.0 W/m2 CLR
18:38 8.3 °C -3.2 °C 1021.6 hPa WNW 31.5 km/h 31.5 km/h 44 % 0.0 mm 0.0 W/m2 CLR
18:39 8.3 °C -2.9 °C 1021.6 hPa NW 35.2 km/h 35.2 km/h 45 % 0.0 mm 0.0 W/m2 CLR
18:44 8.3 °C -2.3 °C 1021.6 hPa NW 37.0 km/h 37.0 km/h 47 % 0.0 mm 0.0 W/m2 CLR
18:49 8.3 °C -2.1 °C 1021.6 hPa NW 31.5 km/h 31.5 km/h 48 % 0.0 mm 0.0 W/m2 CLR
18:54 8.3 °C -2.1 °C 1021.6 hPa NW 42.6 km/h 42.6 km/h 48 % 0.0 mm 0.0 W/m2 CLR
18:59 8.3 °C -1.8 °C 1021.6 hPa NW 31.5 km/h 31.5 km/h 49 % 0.0 mm 0.0 W/m2 CLR
19:04 7.8 °C -2.3 °C 1021.9 hPa NW 31.5 km/h 31.5 km/h 49 % 0.0 mm 0.0 W/m2 CLR
19:09 7.8 °C -2.3 °C 1021.9 hPa NW 37.0 km/h 37.0 km/h 49 % 0.0 mm 0.0 W/m2 CLR
19:14 7.8 °C -2.3 °C 1021.9 hPa NW 37.0 km/h 37.0 km/h 49 % 0.0 mm 0.0 W/m2 CLR
19:19 7.8 °C -2.3 °C 1021.9 hPa NW 40.7 km/h 40.7 km/h 49 % 0.0 mm 0.0 W/m2 CLR
19:24 7.8 °C -2.0 °C 1021.9 hPa WNW 37.0 km/h 37.0 km/h 50 % 0.0 mm 0.0 W/m2 CLR
19:29 7.8 °C -2.0 °C 1022.2 hPa NW 31.5 km/h 31.5 km/h 50 % 0.0 mm 0.0 W/m2 CLR
19:34 7.8 °C -1.7 °C 1022.2 hPa WNW 35.2 km/h 35.2 km/h 51 % 0.0 mm 0.0 W/m2 CLR
19:39 7.2 °C -2.3 °C 1022.2 hPa WNW 31.5 km/h 31.5 km/h 51 % 0.0 mm 0.0 W/m2 CLR
19:44 7.2 °C -2.3 °C 1022.2 hPa NW 35.4 km/h 35.4 km/h 51 % 0.0 mm 0.0 W/m2 CLR
19:49 7.2 °C -2.0 °C 1022.2 hPa NW 40.7 km/h 40.7 km/h 52 % 0.0 mm 0.0 W/m2 CLR
19:54 7.2 °C -2.0 °C 1022.2 hPa NW 29.6 km/h 29.6 km/h 52 % 0.0 mm 0.0 W/m2 CLR
19:59 7.2 °C -1.7 °C 1022.2 hPa NW 37.0 km/h 37.0 km/h 53 % 0.0 mm 0.0 W/m2 CLR
20:04 7.2 °C -1.7 °C 1022.2 hPa NNW 31.5 km/h 31.5 km/h 53 % 0.0 mm 0.0 W/m2 CLR
20:09 7.2 °C -1.7 °C 1022.2 hPa NNW 37.0 km/h 37.0 km/h 53 % 0.0 mm 0.0 W/m2 CLR
20:14 6.7 °C -2.0 °C 1022.2 hPa NW 29.6 km/h 29.6 km/h 54 % 0.0 mm 0.0 W/m2 CLR
20:19 6.7 °C -2.0 °C 1021.9 hPa NW 37.0 km/h 37.0 km/h 54 % 0.0 mm 0.0 W/m2 CLR
20:24 6.7 °C -1.7 °C 1021.9 hPa NW 40.7 km/h 40.7 km/h 55 % 0.0 mm 0.0 W/m2 CLR
20:29 6.7 °C -1.7 °C 1021.9 hPa NNW 38.9 km/h 38.9 km/h 55 % 0.0 mm 0.0 W/m2 CLR
20:34 6.7 °C -1.7 °C 1021.9 hPa NW 33.3 km/h 33.3 km/h 55 % 0.0 mm 0.0 W/m2 CLR
20:39 6.7 °C -1.7 °C 1021.6 hPa NNW 55.5 km/h 55.5 km/h 55 % 0.0 mm 0.0 W/m2 CLR
20:44 6.7 °C -1.7 °C 1021.6 hPa NW 38.6 km/h 38.6 km/h 55 % 0.0 mm 0.0 W/m2 CLR
20:49 6.7 °C -1.7 °C 1021.6 hPa NW 37.0 km/h 37.0 km/h 55 % 0.0 mm 0.0 W/m2 CLR
20:50 6.7 °C -1.7 °C 1021.6 hPa NW 37.0 km/h 37.0 km/h 55 % 0.0 mm 0.0 W/m2 CLR
20:55 6.7 °C -1.7 °C 1021.6 hPa NNW 44.4 km/h 44.4 km/h 55 % 0.0 mm 0.0 W/m2 CLR
21:00 6.7 °C -1.5 °C 1021.6 hPa NW 31.5 km/h 31.5 km/h 56 % 0.0 mm 0.0 W/m2 CLR
21:05 6.7 °C -1.5 °C 1021.6 hPa WNW 31.5 km/h 31.5 km/h 56 % 0.0 mm 0.0 W/m2 CLR
21:10 6.7 °C -1.3 °C 1021.6 hPa WNW 38.9 km/h 38.9 km/h 57 % 0.0 mm 0.0 W/m2 CLR
21:15 6.7 °C -1.0 °C 1021.2 hPa NW 50.0 km/h 50.0 km/h 58 % 0.0 mm 0.0 W/m2 CLR
21:20 6.7 °C -1.0 °C 1021.6 hPa NW 35.2 km/h 35.2 km/h 58 % 0.0 mm 0.0 W/m2 CLR
21:25 6.7 °C -0.8 °C 1021.6 hPa NW 40.7 km/h 40.7 km/h 59 % 0.0 mm 0.0 W/m2 CLR
21:30 6.7 °C -0.8 °C 1021.6 hPa NW 35.2 km/h 35.2 km/h 59 % 0.0 mm 0.0 W/m2 CLR
21:35 6.7 °C -0.6 °C 1021.6 hPa NW 40.2 km/h 40.2 km/h 60 % 0.0 mm 0.0 W/m2 CLR
21:40 6.1 °C -1.1 °C 1021.6 hPa NNW 35.2 km/h 35.2 km/h 60 % 0.0 mm 0.0 W/m2 CLR
21:45 6.1 °C -0.8 °C 1021.6 hPa NW 40.7 km/h 40.7 km/h 61 % 0.0 mm 0.0 W/m2 CLR
21:50 6.1 °C -0.8 °C 1021.9 hPa NW 31.5 km/h 31.5 km/h 61 % 0.0 mm 0.0 W/m2 CLR
21:55 6.1 °C -0.8 °C 1021.9 hPa NNW 32.2 km/h 32.2 km/h 61 % 0.0 mm 0.0 W/m2 CLR
22:00 6.1 °C -0.8 °C 1021.9 hPa WNW 38.6 km/h 38.6 km/h 61 % 0.0 mm 0.0 W/m2 CLR
22:05 6.1 °C -0.6 °C 1021.9 hPa NW 33.3 km/h 33.3 km/h 62 % 0.0 mm 0.0 W/m2 CLR
22:10 6.1 °C -0.6 °C 1021.9 hPa North 25.7 km/h 25.7 km/h 62 % 0.0 mm 0.0 W/m2 CLR
22:15 6.1 °C -0.6 °C 1021.9 hPa NW 29.6 km/h 29.6 km/h 62 % 0.0 mm 0.0 W/m2 CLR
22:20 6.1 °C -0.6 °C 1022.2 hPa NW 31.5 km/h 31.5 km/h 62 % 0.0 mm 0.0 W/m2 CLR
22:25 6.1 °C -0.4 °C 1022.2 hPa NNW 24.1 km/h 24.1 km/h 63 % 0.0 mm 0.0 W/m2 CLR
22:30 6.1 °C -0.4 °C 1022.2 hPa NNW 31.5 km/h 31.5 km/h 63 % 0.0 mm 0.0 W/m2 CLR
22:35 6.1 °C -0.4 °C 1022.2 hPa WNW 24.1 km/h 24.1 km/h 63 % 0.0 mm 0.0 W/m2 CLR
22:40 6.1 °C -0.4 °C 1022.6 hPa NW 29.6 km/h 29.6 km/h 63 % 0.0 mm 0.0 W/m2 CLR
22:45 6.1 °C -0.4 °C 1022.6 hPa NW 18.5 km/h 18.5 km/h 63 % 0.0 mm 0.0 W/m2 CLR
22:50 6.1 °C -0.4 °C 1022.6 hPa WNW 22.2 km/h 22.2 km/h 63 % 0.0 mm 0.0 W/m2 CLR
22:51 6.1 °C -0.4 °C 1022.6 hPa WNW 22.2 km/h 22.2 km/h 63 % 0.0 mm 0.0 W/m2 CLR
22:56 6.1 °C -0.4 °C 1022.2 hPa WNW 18.5 km/h 18.5 km/h 63 % 0.0 mm 0.0 W/m2 CLR
23:01 6.1 °C -0.4 °C 1022.6 hPa WNW 29.6 km/h 29.6 km/h 63 % 0.0 mm 0.0 W/m2 CLR
23:06 6.1 °C -0.4 °C 1022.6 hPa NW 25.9 km/h 25.9 km/h 63 % 0.0 mm 0.0 W/m2 CLR
23:11 6.1 °C -0.4 °C 1022.6 hPa NW 18.5 km/h 18.5 km/h 63 % 0.0 mm 0.0 W/m2 CLR
23:16 6.1 °C -0.4 °C 1022.6 hPa WNW 29.6 km/h 29.6 km/h 63 % 0.0 mm 0.0 W/m2 CLR
23:21 6.1 °C -0.4 °C 1022.6 hPa NW 31.5 km/h 31.5 km/h 63 % 0.0 mm 0.0 W/m2 CLR
23:26 6.1 °C -0.4 °C 1022.6 hPa NW 20.4 km/h 20.4 km/h 63 % 0.0 mm 0.0 W/m2 CLR
23:31 6.1 °C -0.4 °C 1022.2 hPa NW 22.2 km/h 22.2 km/h 63 % 0.0 mm 0.0 W/m2 CLR
23:36 6.1 °C -0.4 °C 1022.6 hPa WNW 30.6 km/h 30.6 km/h 63 % 0.0 mm 0.0 W/m2 CLR
23:41 6.1 °C -0.4 °C 1022.6 hPa NW 25.9 km/h 25.9 km/h 63 % 0.0 mm 0.0 W/m2 CLR
23:46 6.1 °C -0.4 °C 1022.6 hPa NW 32.2 km/h 32.2 km/h 63 % 0.0 mm 0.0 W/m2 CLR
23:51 6.1 °C -0.4 °C 1022.6 hPa NW 27.8 km/h 27.8 km/h 63 % 0.0 mm 0.0 W/m2 CLR
23:56 6.1 °C -0.4 °C 1022.6 hPa NW 27.8 km/h 27.8 km/h 63 % 0.0 mm 0.0 W/m2 CLR
Lo Temps de Massalio
Compliments of Weather Underground - 1.25 mb